createdAt,value
2018-11-04T00:02:26.892Z,25.63
2018-11-04T00:04:56.160Z,33.20
2018-11-04T00:07:25.416Z,31.80
2018-11-04T00:09:54.694Z,25.97
2018-11-04T00:12:24.096Z,25.03
2018-11-04T00:14:53.319Z,31.50
2018-11-04T00:17:22.669Z,30.03
2018-11-04T00:19:52.021Z,32.37
2018-11-04T00:22:21.288Z,34.73
2018-11-04T00:24:50.522Z,39.27
2018-11-04T00:27:19.816Z,31.10
2018-11-04T00:29:49.238Z,34.50
2018-11-04T00:32:18.519Z,32.33
2018-11-04T00:34:47.797Z,30.90
2018-11-04T00:37:17.029Z,29.80
2018-11-04T00:39:46.297Z,33.43
2018-11-04T00:42:15.701Z,30.60
2018-11-04T00:44:44.917Z,27.90
2018-11-04T00:47:14.198Z,33.63
2018-11-04T00:49:43.464Z,35.83
2018-11-04T00:52:12.820Z,32.90
2018-11-04T00:54:42.064Z,35.03
2018-11-04T00:57:11.315Z,30.17
2018-11-04T00:59:40.562Z,34.27
2018-11-04T01:02:09.891Z,29.87
2018-11-04T01:04:39.101Z,30.00
2018-11-04T01:07:08.386Z,28.10
2018-11-04T01:09:37.623Z,27.73
2018-11-04T01:12:07.165Z,29.43
2018-11-04T01:14:36.466Z,31.77
2018-11-04T01:17:05.972Z,28.97
2018-11-04T01:19:35.236Z,29.80
2018-11-04T01:22:04.604Z,30.33
2018-11-04T01:24:34.015Z,29.90
2018-11-04T01:27:03.232Z,29.60
2018-11-04T01:29:32.476Z,32.57
2018-11-04T01:32:01.798Z,30.83
2018-11-04T01:34:31.032Z,32.13
2018-11-04T01:37:00.273Z,30.03
2018-11-04T01:39:29.572Z,28.37
2018-11-04T01:41:58.805Z,29.97
2018-11-04T01:44:28.024Z,31.70
2018-11-04T01:46:57.264Z,34.33
2018-11-04T01:49:26.525Z,30.20
2018-11-04T01:51:55.753Z,30.53
2018-11-04T01:54:25.036Z,31.80
2018-11-04T01:56:54.372Z,29.97
2018-11-04T01:59:23.626Z,30.00
2018-11-04T02:01:52.865Z,28.77
2018-11-04T02:04:22.120Z,28.27
2018-11-04T02:06:51.369Z,31.20
2018-11-04T02:09:20.593Z,31.90
2018-11-04T02:11:49.812Z,36.90
2018-11-04T02:14:19.096Z,34.17
2018-11-04T02:16:48.320Z,32.20
2018-11-04T02:19:17.587Z,30.40
2018-11-04T02:21:46.859Z,28.67
2018-11-04T02:24:16.218Z,34.23
2018-11-04T02:26:45.484Z,35.30
2018-11-04T02:29:14.816Z,31.90
2018-11-04T02:31:44.057Z,30.97
2018-11-04T02:34:13.386Z,29.23
2018-11-04T02:36:42.613Z,27.63
2018-11-04T02:39:12.192Z,28.77
2018-11-04T02:41:41.404Z,26.80
2018-11-04T02:44:10.801Z,26.17
2018-11-04T02:46:40.058Z,28.57
2018-11-04T02:49:09.297Z,32.63
2018-11-04T02:51:38.591Z,27.37
2018-11-04T02:54:07.889Z,29.30
2018-11-04T02:56:37.132Z,25.70
2018-11-04T02:59:06.900Z,32.87
2018-11-04T03:01:36.208Z,30.17
2018-11-04T03:04:05.631Z,32.07
2018-11-04T03:06:34.876Z,36.57
2018-11-04T03:09:05.748Z,33.97
2018-11-04T03:11:35.002Z,38.40
2018-11-04T03:14:04.383Z,28.47
2018-11-04T03:16:33.649Z,30.77
2018-11-04T03:19:02.882Z,33.27
2018-11-04T03:21:32.149Z,40.70
2018-11-04T03:24:01.549Z,34.03
2018-11-04T03:26:30.843Z,29.93
2018-11-04T03:29:00.070Z,35.13
2018-11-04T03:31:29.361Z,33.57
2018-11-04T03:33:58.775Z,26.97
2018-11-04T03:36:28.022Z,37.10
2018-11-04T03:38:57.558Z,31.57
2018-11-04T03:41:26.889Z,38.20
2018-11-04T03:43:56.261Z,32.10
2018-11-04T03:46:25.554Z,37.00
2018-11-04T03:48:54.782Z,39.23
2018-11-04T03:51:24.024Z,32.37
2018-11-04T03:53:53.356Z,32.67
2018-11-04T03:56:22.581Z,39.10
2018-11-04T03:58:51.825Z,31.83
2018-11-04T04:01:21.051Z,32.93
2018-11-04T04:03:50.352Z,39.37
2018-11-04T04:06:19.693Z,41.27
2018-11-04T04:08:48.961Z,33.20
2018-11-04T04:11:18.221Z,28.60
2018-11-04T04:13:47.864Z,34.63
2018-11-04T04:16:17.064Z,30.30
2018-11-04T04:18:46.328Z,27.73
2018-11-04T04:21:15.565Z,32.20
2018-11-04T04:23:44.856Z,29.03
2018-11-04T04:26:14.065Z,36.43
2018-11-04T04:28:43.287Z,31.40
2018-11-04T04:31:12.560Z,37.33
2018-11-04T04:33:41.857Z,35.60
2018-11-04T04:36:11.184Z,35.33
2018-11-04T04:38:40.450Z,32.60
2018-11-04T04:41:09.657Z,29.70
2018-11-04T04:43:38.927Z,34.27
2018-11-04T04:46:08.157Z,33.50
2018-11-04T04:48:37.389Z,30.40
2018-11-04T04:51:06.682Z,33.13
2018-11-04T04:53:36.077Z,34.43
2018-11-04T04:56:05.325Z,31.90
2018-11-04T04:58:34.597Z,30.63
2018-11-04T05:01:03.821Z,27.73
2018-11-04T05:03:33.057Z,29.13
2018-11-04T05:06:02.306Z,25.23
2018-11-04T05:08:32.129Z,23.50
2018-11-04T05:11:01.429Z,25.53
2018-11-04T05:13:30.728Z,24.10
2018-11-04T05:15:59.974Z,23.40
2018-11-04T05:18:29.192Z,24.57
2018-11-04T05:20:58.484Z,20.07
2018-11-04T05:23:27.764Z,23.27
2018-11-04T05:25:57.060Z,24.97
2018-11-04T05:28:26.280Z,26.13
2018-11-04T05:30:55.530Z,23.80
2018-11-04T05:33:24.796Z,26.63
2018-11-04T05:35:54.052Z,24.80
2018-11-04T05:38:23.363Z,23.63
2018-11-04T05:40:52.659Z,27.23
2018-11-04T05:43:21.990Z,26.23
2018-11-04T05:45:51.285Z,26.87
2018-11-04T05:48:21.537Z,22.53
2018-11-04T05:50:50.811Z,24.93
2018-11-04T05:53:20.087Z,29.80
2018-11-04T05:55:49.317Z,25.17
2018-11-04T05:58:18.543Z,26.13
2018-11-04T06:00:47.780Z,23.53
2018-11-04T06:03:17.380Z,25.20
2018-11-04T06:05:46.817Z,22.27
2018-11-04T06:08:16.089Z,23.47
2018-11-04T06:10:45.386Z,24.60
2018-11-04T06:13:15.923Z,21.83
2018-11-04T06:15:45.295Z,20.73
2018-11-04T06:18:14.596Z,20.50
2018-11-04T06:20:43.844Z,21.53
2018-11-04T06:23:13.113Z,20.53
2018-11-04T06:25:42.387Z,19.40
2018-11-04T06:28:11.840Z,19.90
2018-11-04T06:30:41.161Z,19.93
2018-11-04T06:33:10.519Z,19.70
2018-11-04T06:35:39.781Z,19.40
2018-11-04T06:38:09.017Z,18.30
2018-11-04T06:40:38.260Z,19.23
2018-11-04T06:43:07.736Z,17.87
2018-11-04T06:45:37.221Z,19.83
2018-11-04T06:48:06.628Z,21.47
2018-11-04T06:50:35.908Z,23.83
2018-11-04T06:53:05.612Z,22.40
2018-11-04T06:55:34.865Z,23.90
2018-11-04T06:58:07.146Z,22.57
2018-11-04T07:00:36.420Z,23.37
2018-11-04T07:03:05.756Z,21.90
2018-11-04T07:05:35.189Z,21.77
2018-11-04T07:08:04.439Z,19.63
2018-11-04T07:10:33.684Z,30.33
2018-11-04T07:13:03.064Z,20.57
2018-11-04T07:15:32.359Z,19.37
2018-11-04T07:18:01.810Z,24.40
2018-11-04T07:20:31.096Z,24.87
2018-11-04T07:23:00.492Z,21.93
2018-11-04T07:25:29.791Z,19.20
2018-11-04T07:27:59.024Z,20.60
2018-11-04T07:30:28.345Z,19.00
2018-11-04T07:32:57.628Z,18.87
2018-11-04T07:35:26.879Z,18.87
2018-11-04T07:37:56.124Z,18.60
2018-11-04T07:40:25.425Z,19.30
2018-11-04T07:42:54.768Z,19.27
2018-11-04T07:45:24.026Z,16.57
2018-11-04T07:47:53.333Z,16.07
2018-11-04T07:50:23.038Z,16.67
2018-11-04T07:52:52.492Z,16.90
2018-11-04T07:55:21.773Z,15.13
2018-11-04T07:57:51.040Z,14.50
2018-11-04T08:00:20.264Z,18.90
2018-11-04T08:02:49.583Z,17.80
2018-11-04T08:05:18.893Z,16.83
2018-11-04T08:07:48.156Z,16.63
2018-11-04T08:10:17.436Z,16.23
2018-11-04T08:12:46.757Z,15.13
2018-11-04T08:15:16.034Z,15.43
2018-11-04T08:17:45.360Z,15.73
2018-11-04T08:20:14.716Z,17.07
2018-11-04T08:22:44.353Z,16.23
2018-11-04T08:25:13.692Z,14.70
2018-11-04T08:27:42.978Z,15.33
2018-11-04T08:30:12.252Z,14.53
2018-11-04T08:32:41.646Z,16.53
2018-11-04T08:35:10.873Z,14.30
2018-11-04T08:37:40.140Z,14.10
2018-11-04T08:40:09.555Z,14.00
2018-11-04T08:42:38.862Z,13.37
2018-11-04T08:45:08.593Z,13.43
2018-11-04T08:47:37.885Z,14.07
2018-11-04T08:50:08.575Z,13.43
2018-11-04T08:52:39.485Z,13.70
2018-11-04T08:55:09.903Z,12.73
2018-11-04T08:57:39.169Z,13.07
2018-11-04T09:00:10.921Z,12.43
2018-11-04T09:02:40.325Z,10.97
2018-11-04T09:05:09.968Z,11.10
2018-11-04T09:07:39.344Z,12.73
2018-11-04T09:10:12.321Z,13.87
2018-11-04T09:12:41.765Z,13.70
2018-11-04T09:15:11.645Z,14.43
2018-11-04T09:17:40.960Z,14.53
2018-11-04T09:20:13.204Z,15.20
2018-11-04T09:22:43.424Z,14.63
2018-11-04T09:25:13.471Z,15.77
2018-11-04T09:27:43.144Z,14.83
2018-11-04T09:30:14.301Z,15.27
2018-11-04T09:32:43.768Z,15.07
2018-11-04T09:35:13.382Z,16.53
2018-11-04T09:37:42.641Z,15.60
2018-11-04T09:40:13.168Z,16.20
2018-11-04T09:42:42.461Z,15.73
2018-11-04T09:45:12.220Z,15.33
2018-11-04T09:47:41.496Z,14.10
2018-11-04T09:50:12.083Z,13.30
2018-11-04T09:52:41.480Z,13.10
2018-11-04T09:55:11.734Z,12.07
2018-11-04T09:57:41.187Z,12.33
2018-11-04T10:00:12.050Z,12.50
2018-11-04T10:02:41.909Z,12.37
2018-11-04T10:05:12.011Z,11.93
2018-11-04T10:07:41.369Z,11.60
2018-11-04T10:10:12.785Z,10.87
2018-11-04T10:12:43.360Z,10.97
2018-11-04T10:15:12.731Z,10.40
2018-11-04T10:17:42.372Z,9.63
2018-11-04T10:20:12.728Z,10.37
2018-11-04T10:22:43.076Z,9.50
2018-11-04T10:25:13.299Z,9.50
2018-11-04T10:27:43.113Z,8.60
2018-11-04T10:30:14.552Z,9.30
2018-11-04T10:32:43.908Z,9.60
2018-11-04T10:35:13.256Z,10.60
2018-11-04T10:37:43.024Z,11.63
2018-11-04T10:40:13.044Z,11.37
2018-11-04T10:42:42.344Z,10.73
2018-11-04T10:45:12.160Z,10.10
2018-11-04T10:47:41.418Z,9.13
2018-11-04T10:50:12.081Z,8.47
2018-11-04T10:52:42.508Z,9.07
2018-11-04T10:55:12.012Z,8.10
2018-11-04T10:57:41.224Z,9.50
2018-11-04T11:00:17.096Z,9.27
2018-11-04T11:02:46.775Z,8.37
2018-11-04T11:05:16.430Z,9.00
2018-11-04T11:07:46.036Z,8.10
2018-11-04T11:10:15.328Z,7.37
2018-11-04T11:12:44.700Z,7.20
2018-11-04T11:15:14.008Z,7.67
2018-11-04T11:17:43.292Z,7.27
2018-11-04T11:20:13.003Z,7.63
2018-11-04T11:22:42.905Z,6.93
2018-11-04T11:25:12.290Z,7.15
2018-11-04T11:27:41.545Z,6.92
2018-11-04T11:30:10.833Z,6.15
2018-11-04T11:32:40.181Z,6.62
2018-11-04T11:35:09.460Z,8.18
2018-11-04T11:37:38.727Z,7.47
2018-11-04T11:40:09.029Z,7.92
2018-11-04T11:42:38.387Z,7.45
2018-11-04T11:45:08.505Z,7.55
2018-11-04T11:47:37.885Z,7.10
2018-11-04T11:50:07.674Z,7.60
2018-11-04T11:52:37.086Z,7.50
2018-11-04T11:55:07.204Z,7.15
2018-11-04T11:57:36.764Z,6.72
2018-11-04T12:00:08.181Z,6.25
2018-11-04T12:02:38.125Z,4.92
2018-11-04T12:05:08.065Z,5.30
2018-11-04T12:07:37.380Z,5.42
2018-11-04T12:10:08.659Z,5.70
2018-11-04T12:12:38.278Z,5.60
2018-11-04T12:15:08.999Z,5.65
2018-11-04T12:17:38.300Z,5.77
2018-11-04T12:20:09.113Z,5.50
2018-11-04T12:22:38.414Z,6.23
2018-11-04T12:25:09.453Z,5.77
2018-11-04T12:27:38.773Z,6.53
2018-11-04T12:30:10.377Z,6.60
2018-11-04T12:32:39.928Z,6.43
2018-11-04T12:35:10.677Z,6.57
2018-11-04T12:37:39.965Z,6.47
2018-11-04T12:40:11.581Z,5.83
2018-11-04T12:42:40.983Z,5.77
2018-11-04T12:45:11.640Z,5.80
2018-11-04T12:47:40.934Z,6.17
2018-11-04T12:50:11.624Z,6.67
2018-11-04T12:52:41.009Z,5.63
2018-11-04T12:55:10.616Z,6.90
2018-11-04T12:57:40.008Z,5.67
2018-11-04T13:00:12.265Z,6.23
2018-11-04T13:02:41.777Z,6.13
2018-11-04T13:05:11.792Z,5.90
2018-11-04T13:07:41.080Z,5.97
2018-11-04T13:10:12.192Z,5.87
2018-11-04T13:12:41.544Z,5.80
2018-11-04T13:15:12.457Z,6.13
2018-11-04T13:17:41.972Z,5.63
2018-11-04T13:20:11.367Z,5.60
2018-11-04T13:22:40.977Z,5.57
2018-11-04T13:25:10.793Z,5.67
2018-11-04T13:27:40.127Z,5.97
2018-11-04T13:30:11.374Z,6.23
2018-11-04T13:32:40.792Z,6.10
2018-11-04T13:35:10.077Z,6.23
2018-11-04T13:37:39.535Z,5.67
2018-11-04T13:40:10.286Z,6.20
2018-11-04T13:42:39.876Z,5.87
2018-11-04T13:45:09.702Z,5.87
2018-11-04T13:47:39.068Z,6.07
2018-11-04T13:50:10.757Z,5.73
2018-11-04T13:52:40.057Z,5.73
2018-11-04T13:55:09.423Z,5.73
2018-11-04T13:57:39.237Z,6.10
2018-11-04T14:00:12.380Z,5.90
2018-11-04T14:02:41.980Z,5.13
2018-11-04T14:05:11.769Z,5.43
2018-11-04T14:07:41.645Z,5.27
2018-11-04T14:10:12.857Z,6.30
2018-11-04T14:12:42.707Z,8.83
2018-11-04T14:15:12.479Z,7.63
2018-11-04T14:17:41.723Z,7.93
2018-11-04T14:20:12.182Z,5.93
2018-11-04T14:22:42.026Z,6.50
2018-11-04T14:25:12.116Z,6.20
2018-11-04T14:27:41.492Z,5.87
2018-11-04T14:30:13.108Z,6.30
2018-11-04T14:32:42.797Z,6.33
2018-11-04T14:35:12.613Z,5.77
2018-11-04T14:37:42.639Z,6.83
2018-11-04T14:40:13.674Z,5.93
2018-11-04T14:42:43.689Z,7.03
2018-11-04T14:45:12.990Z,6.73
2018-11-04T14:47:42.320Z,7.07
2018-11-04T14:50:14.232Z,6.27
2018-11-04T14:52:43.692Z,6.93
2018-11-04T14:55:13.112Z,5.30
2018-11-04T14:57:42.369Z,6.20
2018-11-04T15:00:14.448Z,7.20
2018-11-04T15:02:43.843Z,5.90
2018-11-04T15:05:13.439Z,6.70
2018-11-04T15:07:42.718Z,7.60
2018-11-04T15:10:13.688Z,8.23
2018-11-04T15:12:43.176Z,7.23
2018-11-04T15:15:14.001Z,6.53
2018-11-04T15:17:43.333Z,6.57
2018-11-04T15:20:13.013Z,6.37
2018-11-04T15:22:45.270Z,6.07
2018-11-04T15:25:15.292Z,7.17
2018-11-04T15:27:44.616Z,6.87
2018-11-04T15:30:13.924Z,6.40
2018-11-04T15:32:43.506Z,6.07
2018-11-04T15:35:13.725Z,5.93
2018-11-04T15:37:43.021Z,6.13
2018-11-04T15:40:14.083Z,6.13
2018-11-04T15:42:43.365Z,5.50
2018-11-04T15:45:13.799Z,6.07
2018-11-04T15:47:43.107Z,5.50
2018-11-04T15:50:17.226Z,5.53
2018-11-04T15:52:47.025Z,5.67
2018-11-04T15:55:16.316Z,5.37
2018-11-04T15:57:45.605Z,5.57
2018-11-04T16:00:15.641Z,5.03
2018-11-04T16:02:45.064Z,5.50
2018-11-04T16:05:14.433Z,5.67
2018-11-04T16:07:43.729Z,5.00
2018-11-04T16:10:13.372Z,5.33
2018-11-04T16:12:42.956Z,5.47
2018-11-04T16:15:13.792Z,4.93
2018-11-04T16:17:43.627Z,5.73
2018-11-04T16:20:14.208Z,5.60
2018-11-04T16:22:44.173Z,6.30
2018-11-04T16:25:13.864Z,5.57
2018-11-04T16:27:43.488Z,5.37
2018-11-04T16:30:14.234Z,5.77
2018-11-04T16:32:43.490Z,5.50
2018-11-04T16:35:13.739Z,5.10
2018-11-04T16:37:44.016Z,5.37
2018-11-04T16:40:13.223Z,5.27
2018-11-04T16:42:42.606Z,5.67
2018-11-04T16:45:14.225Z,5.43
2018-11-04T16:47:43.519Z,5.37
2018-11-04T16:50:13.675Z,5.23
2018-11-04T16:52:43.644Z,5.37
2018-11-04T16:55:13.494Z,5.50
2018-11-04T16:57:43.270Z,5.60
2018-11-04T17:00:13.000Z,5.37
2018-11-04T17:02:42.479Z,8.23
2018-11-04T17:05:12.622Z,11.03
2018-11-04T17:07:42.435Z,10.40
2018-11-04T17:10:11.826Z,8.17
2018-11-04T17:12:41.159Z,8.43
2018-11-04T17:15:12.359Z,8.73
2018-11-04T17:17:48.398Z,7.90
2018-11-04T17:20:18.640Z,7.13
2018-11-04T17:22:48.044Z,7.03
2018-11-04T17:25:17.308Z,6.80
2018-11-04T17:27:46.568Z,7.03
2018-11-04T17:30:17.301Z,8.27
2018-11-04T17:32:46.885Z,8.93
2018-11-04T17:35:16.867Z,7.40
2018-11-04T17:37:46.508Z,6.77
2018-11-04T17:40:16.534Z,7.40
2018-11-04T17:42:46.057Z,7.37
2018-11-04T17:45:16.474Z,7.47
2018-11-04T17:47:46.269Z,7.30
2018-11-04T17:50:17.376Z,6.67
2018-11-04T17:52:46.815Z,7.03
2018-11-04T17:55:16.363Z,7.73
2018-11-04T17:57:45.950Z,8.37
2018-11-04T18:00:16.476Z,9.40
2018-11-04T18:02:45.892Z,8.73
2018-11-04T18:05:15.304Z,7.47
2018-11-04T18:07:44.992Z,8.77
2018-11-04T18:10:15.196Z,9.23
2018-11-04T18:12:44.521Z,11.20
2018-11-04T18:15:14.632Z,8.80
2018-11-04T18:17:44.037Z,7.80
2018-11-04T18:20:13.652Z,8.40
2018-11-04T18:22:43.015Z,9.53
2018-11-04T18:25:12.761Z,9.33
2018-11-04T18:27:42.037Z,8.87
2018-11-04T18:30:13.700Z,8.03
2018-11-04T18:32:43.315Z,8.67
2018-11-04T18:35:12.681Z,7.77
2018-11-04T18:37:45.077Z,9.57
2018-11-04T18:40:16.742Z,9.57
2018-11-04T18:42:46.412Z,10.27
2018-11-04T18:45:16.800Z,9.73
2018-11-04T18:47:46.176Z,8.30
2018-11-04T18:50:16.231Z,8.23
2018-11-04T18:52:45.842Z,8.40
2018-11-04T18:55:15.017Z,9.87
2018-11-04T18:57:44.802Z,8.80
2018-11-04T19:00:18.293Z,8.00
2018-11-04T19:02:48.444Z,8.67
2018-11-04T19:05:18.030Z,8.53
2018-11-04T19:07:47.283Z,7.67
2018-11-04T19:10:17.865Z,8.20
2018-11-04T19:12:47.386Z,9.50
2018-11-04T19:15:16.640Z,10.00
2018-11-04T19:17:45.899Z,8.77
2018-11-04T19:20:15.888Z,8.67
2018-11-04T19:22:45.248Z,8.60
2018-11-04T19:25:15.508Z,8.53
2018-11-04T19:27:44.874Z,8.33
2018-11-04T19:30:15.556Z,8.40
2018-11-04T19:32:45.251Z,8.90
2018-11-04T19:35:15.388Z,9.17
2018-11-04T19:37:44.774Z,9.37
2018-11-04T19:40:15.092Z,9.90
2018-11-04T19:42:44.463Z,9.13
2018-11-04T19:45:13.714Z,9.33
2018-11-04T19:47:42.996Z,9.30
2018-11-04T19:50:13.223Z,9.73
2018-11-04T19:52:42.960Z,9.30
2018-11-04T19:55:13.043Z,10.17
2018-11-04T19:57:42.443Z,10.83
2018-11-04T20:00:12.877Z,10.90
2018-11-04T20:02:42.219Z,10.47
2018-11-04T20:05:12.383Z,10.10
2018-11-04T20:07:41.756Z,10.87
2018-11-04T20:10:13.596Z,11.53
2018-11-04T20:12:47.980Z,12.20
2018-11-04T20:15:17.267Z,11.10
2018-11-04T20:17:47.310Z,10.90
2018-11-04T20:20:19.340Z,11.07
2018-11-04T20:22:48.718Z,10.53
2018-11-04T20:25:23.136Z,11.50
2018-11-04T20:27:52.476Z,10.80
2018-11-04T20:30:21.737Z,12.03
2018-11-04T20:32:56.208Z,13.23
2018-11-04T20:35:25.446Z,11.53
2018-11-04T20:37:54.832Z,12.33
2018-11-04T20:40:29.161Z,12.03
2018-11-04T20:42:58.756Z,12.23
2018-11-04T20:45:28.024Z,16.27
2018-11-04T20:48:02.532Z,17.27
2018-11-04T20:50:36.849Z,16.07
2018-11-04T20:53:06.263Z,14.10
2018-11-04T20:55:40.661Z,15.13
2018-11-04T20:58:10.037Z,14.33
2018-11-04T21:00:39.259Z,17.00
2018-11-04T21:03:08.598Z,14.70
2018-11-04T21:05:37.904Z,14.23
2018-11-04T21:08:07.700Z,14.63
2018-11-04T21:10:37.041Z,16.53
2018-11-04T21:13:06.328Z,16.40
2018-11-04T21:15:35.604Z,16.33
2018-11-04T21:18:04.940Z,14.77
2018-11-04T21:20:34.214Z,17.10
2018-11-04T21:23:03.555Z,19.20
2018-11-04T21:25:33.105Z,16.83
2018-11-04T21:28:02.300Z,15.80
2018-11-04T21:30:31.974Z,14.47
2018-11-04T21:33:01.626Z,19.63
2018-11-04T21:35:31.064Z,19.83
2018-11-04T21:38:00.591Z,15.13
2018-11-04T21:40:29.992Z,14.17
2018-11-04T21:42:59.751Z,23.37
2018-11-04T21:45:29.329Z,22.00
2018-11-04T21:47:58.814Z,18.63
2018-11-04T21:50:28.271Z,22.30
2018-11-04T21:52:57.714Z,25.03
2018-11-04T21:55:27.319Z,26.50
2018-11-04T21:57:57.349Z,23.87
2018-11-04T22:00:26.758Z,18.97
2018-11-04T22:02:56.541Z,22.87
2018-11-04T22:05:25.950Z,23.70
2018-11-04T22:07:55.572Z,26.00
2018-11-04T22:10:25.128Z,21.63
2018-11-04T22:12:54.757Z,19.70
2018-11-04T22:15:24.264Z,21.97
2018-11-04T22:17:53.512Z,22.30
2018-11-04T22:20:22.748Z,20.97
2018-11-04T22:22:52.037Z,21.70
2018-11-04T22:25:21.263Z,23.80
2018-11-04T22:27:50.509Z,18.50
2018-11-04T22:30:19.737Z,23.03
2018-11-04T22:32:49.011Z,24.87
2018-11-04T22:35:18.613Z,19.90
2018-11-04T22:37:47.868Z,25.17
2018-11-04T22:40:17.117Z,24.37
2018-11-04T22:42:46.445Z,20.83
2018-11-04T22:45:15.717Z,25.47
2018-11-04T22:47:45.001Z,23.30
2018-11-04T22:50:15.368Z,25.47
2018-11-04T22:52:44.977Z,24.43
2018-11-04T22:55:15.000Z,22.87
2018-11-04T22:57:44.707Z,23.80
2018-11-04T23:00:19.130Z,20.67
2018-11-04T23:02:49.656Z,25.53
2018-11-04T23:05:23.899Z,26.90
2018-11-04T23:07:53.377Z,26.37
2018-11-04T23:10:22.668Z,21.77
2018-11-04T23:12:51.996Z,25.63
2018-11-04T23:15:21.285Z,26.90
2018-11-04T23:17:50.749Z,25.77
2018-11-04T23:20:19.973Z,25.20
2018-11-04T23:22:49.249Z,25.00
2018-11-04T23:25:18.485Z,24.30
2018-11-04T23:27:47.745Z,23.90
2018-11-04T23:30:18.210Z,24.30
2018-11-04T23:32:48.089Z,24.43
2018-11-04T23:35:17.318Z,21.40
2018-11-04T23:37:46.591Z,24.90
2018-11-04T23:40:15.858Z,25.07
2018-11-04T23:42:45.320Z,30.33
2018-11-04T23:45:15.249Z,27.73
2018-11-04T23:47:44.657Z,21.97
2018-11-04T23:50:15.164Z,24.23
2018-11-04T23:52:44.781Z,26.43
2018-11-04T23:55:14.691Z,25.70
2018-11-04T23:57:43.960Z,25.10
